Time;durP1;ratioP1;P1;durP2;ratioP2;P2;SDS_P1;SDS_P2;PMS_P1;PMS_P2;Temp;Humidity;BMP_temperature;BMP_pressure;BME280_temperature;BME280_humidity;BME280_pressure;Samples;Min_cycle;Max_cycle;Signal;HPM_P1;HPM_P2
2021/11/25 00:00:18;;;;;;;;;;;;;;;14.77;71.99;101114.25;1049009;28;1792;-62
2021/11/25 00:01:09;;;;;;;;;;;;;;;14.78;72.01;101109.75;1048967;28;712;-63
2021/11/25 00:01:59;;;;;;;;;;;;;;;14.78;71.89;101107.91;1049109;28;613;-64
2021/11/25 00:02:50;;;;;;;;;;;;;;;14.77;71.48;101099.97;1050059;28;1836;-63
2021/11/25 00:03:40;;;;;;;;;;;;;;;14.76;72.05;101109.00;1045484;28;714;-63
2021/11/25 00:04:30;;;;;;;;;;;;;;;14.76;71.96;101106.31;1045004;28;980;-63
2021/11/25 00:05:21;;;;;;;;;;;;;;;14.76;71.62;101104.50;1047457;28;1975;-63
2021/11/25 00:06:11;;;;;;;;;;;;;;;14.76;71.85;101101.81;1049167;28;753;-63
2021/11/25 00:07:02;;;;;;;;;;;;;;;14.76;71.58;101092.91;1049190;28;860;-63
2021/11/25 00:07:53;;;;;;;;;;;;;;;14.75;71.55;101089.38;1049029;28;832;-63
2021/11/25 00:08:43;;;;;;;;;;;;;;;14.75;71.59;101092.06;1049125;28;693;-63
2021/11/25 00:09:34;;;;;;;;;;;;;;;14.74;71.46;101097.53;1045654;28;697;-63
2021/11/25 00:10:24;;;;;;;;;;;;;;;14.75;71.57;101088.50;1045625;28;964;-63
2021/11/25 00:11:14;;;;;;;;;;;;;;;14.74;71.49;101087.66;1044951;28;934;-63
2021/11/25 00:12:05;;;;;;;;;;;;;;;14.75;71.44;101099.25;1047240;28;2026;-63
2021/11/25 00:12:55;;;;;;;;;;;;;;;14.74;71.89;101098.38;1049114;28;614;-63
2021/11/25 00:13:46;;;;;;;;;;;;;;;14.74;72.21;101097.53;1049170;28;705;-63
2021/11/25 00:14:36;;;;;;;;;;;;;;;14.74;71.92;101102.91;1049186;28;797;-63
2021/11/25 00:15:27;;;;;;;;;;;;;;;14.73;72.02;101085.94;1049147;28;942;-62
2021/11/25 00:16:17;;;;;;;;;;;;;;;14.74;72.16;101094.84;1048966;28;1974;-63
2021/11/25 00:17:08;;;;;;;;;;;;;;;14.73;71.49;101101.19;1049247;28;680;-63
2021/11/25 00:17:58;;;;;;;;;;;;;;;14.73;72.03;101104.72;1049539;28;673;-62
2021/11/25 00:18:48;;;;;;;;;;;;;;;14.72;71.51;101100.34;1048919;28;1977;-63
2021/11/25 00:19:39;;;;;;;;;;;;;;;14.73;71.28;101101.19;1049172;28;839;-63
2021/11/25 00:20:29;;;;;;;;;;;;;;;14.72;71.50;101094.97;1049085;28;1898;-63
2021/11/25 00:21:20;;;;;;;;;;;;;;;14.71;72.03;101093.25;1049203;28;740;-63
2021/11/25 00:22:10;;;;;;;;;;;;;;;14.72;71.68;101094.97;1049029;28;727;-61
2021/11/25 00:23:01;;;;;;;;;;;;;;;14.72;71.66;101091.44;1049149;28;681;-61
2021/11/25 00:23:51;;;;;;;;;;;;;;;14.70;71.83;101091.56;1048852;28;809;-61
2021/11/25 00:24:41;;;;;;;;;;;;;;;14.71;71.73;101082.53;1049101;28;646;-61
2021/11/25 00:25:32;;;;;;;;;;;;;;;14.71;72.21;101092.41;1049248;28;1894;-61
2021/11/25 00:26:22;;;;;;;;;;;;;;;14.71;71.51;101092.41;1048980;28;685;-61
2021/11/25 00:27:13;;;;;;;;;;;;;;;14.71;71.72;101093.25;1049269;28;854;-61
2021/11/25 00:28:03;;;;;;;;;;;;;;;14.69;72.06;101084.47;1048917;28;866;-61
2021/11/25 00:28:53;;;;;;;;;;;;;;;14.70;72.12;101083.50;1048754;28;1851;-61
2021/11/25 00:29:44;;;;;;;;;;;;;;;14.70;72.01;101090.69;1049524;28;852;-61
2021/11/25 00:30:34;;;;;;;;;;;;;;;14.69;72.10;101078.28;1049160;28;701;-61
2021/11/25 00:31:25;;;;;;;;;;;;;;;14.70;71.86;101079.97;1049012;28;1915;-60
2021/11/25 00:32:15;;;;;;;;;;;;;;;14.70;71.92;101079.97;1048969;28;950;-61
2021/11/25 00:33:06;;;;;;;;;;;;;;;14.69;71.88;101081.78;1048917;28;2006;-60
2021/11/25 00:33:56;;;;;;;;;;;;;;;14.69;71.98;101078.28;1048954;28;882;-61
2021/11/25 00:34:46;;;;;;;;;;;;;;;14.68;71.65;101077.44;1049041;28;676;-61
2021/11/25 00:35:37;;;;;;;;;;;;;;;14.69;71.49;101070.25;1049041;28;821;-61
2021/11/25 00:36:27;;;;;;;;;;;;;;;14.68;72.10;101076.56;1044930;28;1806;-61
2021/11/25 00:37:18;;;;;;;;;;;;;;;14.67;72.15;101070.34;1046563;28;780;-61
2021/11/25 00:38:08;;;;;;;;;;;;;;;14.68;71.63;101073.91;1046628;28;888;-61
2021/11/25 00:38:59;;;;;;;;;;;;;;;14.68;71.51;101073.91;1046692;28;653;-61
2021/11/25 00:39:49;;;;;;;;;;;;;;;14.68;72.00;101077.44;1041428;28;1987;-61
2021/11/25 00:40:39;;;;;;;;;;;;;;;14.67;72.04;101067.69;1045821;28;1203;-61
2021/11/25 00:41:30;;;;;;;;;;;;;;;14.68;71.40;101069.38;1050532;28;1081;-60
2021/11/25 00:42:20;;;;;;;;;;;;;;;14.68;72.07;101076.56;1052808;28;739;-61
2021/11/25 00:43:11;;;;;;;;;;;;;;;14.68;71.76;101071.22;1054045;28;735;-61
2021/11/25 00:44:01;;;;;;;;;;;;;;;14.67;71.48;101073.03;1046135;28;2102;-61
2021/11/25 00:44:51;;;;;;;;;;;;;;;14.67;71.26;101072.19;1044962;28;860;-62
2021/11/25 00:45:42;;;;;;;;;;;;;;;14.67;71.74;101074.88;1049151;28;1894;-62
2021/11/25 00:46:32;;;;;;;;;;;;;;;14.66;71.89;101082.06;1053225;28;1301;-62
2021/11/25 00:47:23;;;;;;;;;;;;;;;14.66;71.88;101081.19;1049942;28;724;-62
2021/11/25 00:48:13;;;;;;;;;;;;;;;14.65;71.43;101072.31;1049000;28;716;-62
2021/11/25 00:49:04;;;;;;;;;;;;;;;14.66;71.41;101071.31;1048842;28;861;-62
2021/11/25 00:49:54;;;;;;;;;;;;;;;14.66;72.23;101068.66;1049869;28;2085;-61
2021/11/25 00:50:44;;;;;;;;;;;;;;;14.66;71.96;101074.00;1048977;28;958;-63
2021/11/25 00:51:35;;;;;;;;;;;;;;;14.65;72.08;101069.63;1049012;28;738;-62
2021/11/25 00:52:26;;;;;;;;;;;;;;;14.65;71.50;101068.75;1048585;28;2070;-63
2021/11/25 00:53:17;;;;;;;;;;;;;;;14.64;71.92;101054.50;1049055;28;713;-63
2021/11/25 00:54:07;;;;;;;;;;;;;;;14.64;72.05;101057.19;1048869;28;618;-61
2021/11/25 00:54:58;;;;;;;;;;;;;;;14.65;71.82;101050.00;1048973;28;832;-61
2021/11/25 00:55:48;;;;;;;;;;;;;;;14.63;71.84;101058.16;1048866;28;622;-62
2021/11/25 00:56:38;;;;;;;;;;;;;;;14.63;71.96;101057.28;1049037;28;712;-62
2021/11/25 00:57:29;;;;;;;;;;;;;;;14.62;72.30;101053.75;1049059;28;711;-62
2021/11/25 00:58:20;;;;;;;;;;;;;;;14.62;71.94;101056.44;1048757;28;1986;-61
2021/11/25 00:59:11;;;;;;;;;;;;;;;14.63;71.56;101051.94;1048868;28;733;-62
2021/11/25 01:00:01;;;;;;;;;;;;;;;14.63;71.62;101058.16;1049087;28;2103;-62
2021/11/25 01:00:51;;;;;;;;;;;;;;;14.64;71.62;101053.66;1048893;28;2091;-62
2021/11/25 01:01:43;;;;;;;;;;;;;;;14.63;71.99;101051.94;1049101;28;618;-62
2021/11/25 01:02:33;;;;;;;;;;;;;;;14.62;72.09;101048.41;1048833;28;754;-62
2021/11/25 01:03:23;;;;;;;;;;;;;;;14.62;72.00;101050.22;1048693;28;1875;-62
2021/11/25 01:04:14;;;;;;;;;;;;;;;14.62;71.72;101047.53;1048916;28;1481;-62
2021/11/25 01:05:04;;;;;;;;;;;;;;;14.61;72.06;101046.69;1048854;28;1426;-62
2021/11/25 01:05:55;;;;;;;;;;;;;;;14.61;71.84;101052.06;1048845;28;692;-63
2021/11/25 01:06:45;;;;;;;;;;;;;;;14.61;71.67;101048.50;1049400;28;704;-63
2021/11/25 01:07:35;;;;;;;;;;;;;;;14.61;72.14;101049.38;1048906;28;707;-63
2021/11/25 01:08:27;;;;;;;;;;;;;;;14.60;71.48;101047.66;1048881;28;1797;-63
2021/11/25 01:09:17;;;;;;;;;;;;;;;14.61;71.70;101049.38;1049462;28;661;-63
2021/11/25 01:10:08;;;;;;;;;;;;;;;14.60;72.22;101042.28;1049114;28;705;-63
2021/11/25 01:10:58;;;;;;;;;;;;;;;14.61;71.77;101048.50;1048877;28;689;-63
2021/11/25 01:11:49;;;;;;;;;;;;;;;14.60;71.98;101044.97;1049010;28;841;-63
2021/11/25 01:12:39;;;;;;;;;;;;;;;14.60;71.70;101042.28;1048752;28;768;-63
2021/11/25 01:13:29;;;;;;;;;;;;;;;14.60;71.69;101042.28;1048818;28;810;-63
2021/11/25 01:14:20;;;;;;;;;;;;;;;14.60;71.66;101042.28;1048955;28;854;-63
2021/11/25 01:15:10;;;;;;;;;;;;;;;14.59;71.61;101037.91;1048792;28;757;-63
2021/11/25 01:16:01;;;;;;;;;;;;;;;14.59;71.93;101035.22;1045353;28;1706;-63
2021/11/25 01:16:51;;;;;;;;;;;;;;;14.58;71.50;101039.72;1048904;28;616;-62
2021/11/25 01:17:42;;;;;;;;;;;;;;;14.58;71.69;101039.72;1048920;28;692;-62
2021/11/25 01:18:32;;;;;;;;;;;;;;;14.58;71.60;101038.88;1048695;28;768;-62
2021/11/25 01:19:22;;;;;;;;;;;;;;;14.57;72.16;101043.38;1048740;28;1069;-63
2021/11/25 01:20:13;;;;;;;;;;;;;;;14.58;71.86;101045.09;1047560;28;1787;-63
2021/11/25 01:21:03;;;;;;;;;;;;;;;14.58;71.50;101038.88;1048844;28;634;-63
2021/11/25 01:21:54;;;;;;;;;;;;;;;14.57;71.97;101037.16;1048866;28;855;-63
2021/11/25 01:22:44;;;;;;;;;;;;;;;14.57;71.81;101045.22;1047884;28;2108;-62
2021/11/25 01:23:34;;;;;;;;;;;;;;;14.58;71.34;101041.56;1048764;28;674;-62
2021/11/25 01:24:25;;;;;;;;;;;;;;;14.57;71.68;101043.38;1048771;28;869;-62
2021/11/25 01:25:15;;;;;;;;;;;;;;;14.57;71.79;101045.22;1048727;28;1953;-62
2021/11/25 01:26:06;;;;;;;;;;;;;;;14.57;72.32;101042.53;1048780;28;740;-62
2021/11/25 01:26:56;;;;;;;;;;;;;;;14.58;71.87;101044.25;1049372;28;2061;-62
2021/11/25 01:27:46;;;;;;;;;;;;;;;14.56;71.61;101044.34;1045299;28;654;-61
2021/11/25 01:28:37;;;;;;;;;;;;;;;14.57;71.50;101042.53;1045408;28;867;-62
2021/11/25 01:29:27;;;;;;;;;;;;;;;14.57;71.74;101048.75;1045238;28;679;-61
2021/11/25 01:30:18;;;;;;;;;;;;;;;14.56;71.64;101049.72;1045200;28;830;-63
2021/11/25 01:31:08;;;;;;;;;;;;;;;14.56;72.52;101043.50;1045564;28;2026;-63
2021/11/25 01:31:59;;;;;;;;;;;;;;;14.56;72.24;101046.19;1044760;28;662;-62
2021/11/25 01:32:49;;;;;;;;;;;;;;;14.56;71.98;101044.34;1044413;28;914;-62
2021/11/25 01:33:39;;;;;;;;;;;;;;;14.55;72.22;101048.00;1045328;28;614;-63
2021/11/25 01:34:30;;;;;;;;;;;;;;;14.55;71.38;101044.47;1046204;28;1478;-63
2021/11/25 01:35:20;;;;;;;;;;;;;;;14.56;72.21;101052.41;1046458;28;688;-62
2021/11/25 01:36:11;;;;;;;;;;;;;;;14.56;71.76;101048.88;1046343;28;633;-62
2021/11/25 01:37:01;;;;;;;;;;;;;;;14.55;72.34;101048.00;1046461;28;891;-61
2021/11/25 01:37:52;;;;;;;;;;;;;;;14.55;71.61;101048.00;1046462;28;770;-61
2021/11/25 01:38:42;;;;;;;;;;;;;;;14.55;72.06;101047.16;1047427;28;1867;-61
2021/11/25 01:39:32;;;;;;;;;;;;;;;14.55;71.66;101039.97;1048731;28;791;-61
2021/11/25 01:40:23;;;;;;;;;;;;;;;14.55;71.90;101044.47;1048807;28;1826;-59
2021/11/25 01:41:14;;;;;;;;;;;;;;;14.54;72.15;101043.63;1049797;28;785;-61
2021/11/25 01:42:05;;;;;;;;;;;;;;;14.53;71.66;101051.78;1048865;28;645;-62
2021/11/25 01:42:55;;;;;;;;;;;;;;;14.54;72.15;101053.50;1048566;28;925;-62
2021/11/25 01:43:45;;;;;;;;;;;;;;;14.53;71.36;101049.09;1048658;28;2060;-62
2021/11/25 01:44:36;;;;;;;;;;;;;;;14.54;72.13;101048.97;1045088;28;2041;-64
2021/11/25 01:45:27;;;;;;;;;;;;;;;14.54;71.66;101048.13;1046028;28;1906;-65
2021/11/25 01:46:17;;;;;;;;;;;;;;;14.53;71.57;101047.28;1048430;28;1980;-64
2021/11/25 01:47:08;;;;;;;;;;;;;;;14.53;72.27;101043.75;1045084;28;894;-64
2021/11/25 01:47:58;;;;;;;;;;;;;;;14.53;71.90;101046.41;1047080;28;677;-64
2021/11/25 01:48:49;;;;;;;;;;;;;;;14.52;72.32;101036.66;1047060;28;685;-65
2021/11/25 01:49:39;;;;;;;;;;;;;;;14.51;72.21;101035.00;1048361;28;1961;-64
2021/11/25 01:50:29;;;;;;;;;;;;;;;14.52;71.37;101042.03;1045139;28;888;-64
2021/11/25 01:51:20;;;;;;;;;;;;;;;14.51;71.96;101035.81;1045201;28;886;-64
2021/11/25 01:52:10;;;;;;;;;;;;;;;14.52;71.58;101025.94;1045840;28;756;-64
2021/11/25 01:53:01;;;;;;;;;;;;;;;14.52;72.01;101029.47;1047756;28;1773;-61
2021/11/25 01:53:51;;;;;;;;;;;;;;;14.50;71.79;101027.91;1048905;28;725;-61
2021/11/25 01:54:41;;;;;;;;;;;;;;;14.50;72.12;101027.91;1048334;28;1832;-59
2021/11/25 01:55:32;;;;;;;;;;;;;;;14.51;72.33;101029.63;1048849;28;743;-61
2021/11/25 01:56:22;;;;;;;;;;;;;;;14.50;72.48;101025.22;1048286;28;1231;-60
2021/11/25 01:57:13;;;;;;;;;;;;;;;14.50;72.49;101022.56;1049293;28;673;-60
2021/11/25 01:58:03;;;;;;;;;;;;;;;14.50;72.11;101015.38;1044463;28;762;-61
2021/11/25 01:58:54;;;;;;;;;;;;;;;14.50;71.87;101014.50;1046315;28;2067;-59
2021/11/25 01:59:44;;;;;;;;;;;;;;;14.51;72.05;101022.41;1048607;28;943;-61
2021/11/25 02:00:35;;;;;;;;;;;;;;;14.49;71.67;101018.16;1048818;28;798;-61
2021/11/25 02:01:32;;;;;;;;;;;;;;;14.48;72.28;101016.44;1048973;28;743;-61
2021/11/25 02:02:23;;;;;;;;;;;;;;;14.49;71.74;101019.00;1045678;28;1862;-60
2021/11/25 02:03:13;;;;;;;;;;;;;;;14.49;71.73;101013.66;1045241;28;719;-60
2021/11/25 02:04:03;;;;;;;;;;;;;;;14.48;71.48;101011.94;1048538;28;1744;-61
2021/11/25 02:04:54;;;;;;;;;;;;;;;14.49;71.74;101013.66;1048493;28;1447;-61
2021/11/25 02:05:45;;;;;;;;;;;;;;;14.49;71.85;101018.16;1048384;28;1958;-61
2021/11/25 02:06:36;;;;;;;;;;;;;;;14.48;72.23;101009.25;1048450;28;1767;-61
2021/11/25 02:07:26;;;;;;;;;;;;;;;14.48;72.13;101008.41;1048468;28;1949;-61
2021/11/25 02:08:16;;;;;;;;;;;;;;;14.49;71.73;101007.44;1048670;28;785;-61
2021/11/25 02:09:07;;;;;;;;;;;;;;;14.48;72.18;101005.72;1048785;28;723;-61
2021/11/25 02:09:57;;;;;;;;;;;;;;;14.45;72.15;101004.13;1048697;28;854;-61
2021/11/25 02:10:48;;;;;;;;;;;;;;;14.46;71.99;101007.66;1048739;28;816;-61
2021/11/25 02:11:38;;;;;;;;;;;;;;;14.46;72.38;101002.31;1048367;28;1949;-60
2021/11/25 02:12:29;;;;;;;;;;;;;;;14.45;71.85;101005.97;1048445;28;1833;-61
2021/11/25 02:13:19;;;;;;;;;;;;;;;14.46;72.24;101005.00;1048715;28;1951;-61
2021/11/25 02:14:09;;;;;;;;;;;;;;;14.46;72.01;101010.34;1052437;28;739;-61
2021/11/25 02:15:00;;;;;;;;;;;;;;;14.45;71.50;101004.13;1053847;28;1787;-61
2021/11/25 02:15:50;;;;;;;;;;;;;;;14.46;72.66;101008.53;1041892;28;1951;-60
2021/11/25 02:16:41;;;;;;;;;;;;;;;14.45;72.31;101005.97;1045967;28;2050;-61
2021/11/25 02:17:31;;;;;;;;;;;;;;;14.45;71.65;101008.63;1049589;28;1865;-60
2021/11/25 02:18:22;;;;;;;;;;;;;;;14.45;71.94;101004.13;1048104;28;1882;-61
2021/11/25 02:19:13;;;;;;;;;;;;;;;14.44;72.13;101009.63;1048588;28;955;-62
2021/11/25 02:20:03;;;;;;;;;;;;;;;14.43;71.84;101002.53;1048681;28;661;-62
2021/11/25 02:20:54;;;;;;;;;;;;;;;14.43;72.03;100997.19;1048675;28;857;-62
2021/11/25 02:21:44;;;;;;;;;;;;;;;14.45;72.37;101000.59;1048682;28;677;-62
2021/11/25 02:22:35;;;;;;;;;;;;;;;14.43;72.12;100997.19;1048640;28;728;-62
2021/11/25 02:23:25;;;;;;;;;;;;;;;14.44;72.49;100993.53;1048535;28;744;-62
2021/11/25 02:24:16;;;;;;;;;;;;;;;14.45;72.38;100996.09;1044516;28;1693;-61
2021/11/25 02:25:06;;;;;;;;;;;;;;;14.44;71.94;100990.84;1044971;28;783;-60
2021/11/25 02:25:56;;;;;;;;;;;;;;;14.44;72.32;100991.69;1045481;28;2055;-61
2021/11/25 02:26:47;;;;;;;;;;;;;;;14.43;71.57;100986.47;1046192;28;869;-61
2021/11/25 02:27:37;;;;;;;;;;;;;;;14.43;72.29;100986.47;1046658;28;1646;-60
2021/11/25 02:28:28;;;;;;;;;;;;;;;14.41;71.93;100989.25;1049704;28;1815;-60
2021/11/25 02:29:18;;;;;;;;;;;;;;;14.42;72.04;100988.28;1044059;28;728;-60
2021/11/25 02:30:08;;;;;;;;;;;;;;;14.42;72.46;100987.44;1046035;28;692;-61
2021/11/25 02:30:59;;;;;;;;;;;;;;;14.42;72.29;100979.38;1046383;28;902;-61
2021/11/25 02:31:50;;;;;;;;;;;;;;;14.42;72.20;100985.59;1045482;28;685;-61
2021/11/25 02:32:41;;;;;;;;;;;;;;;14.42;72.30;100984.75;1049359;28;692;-61
2021/11/25 02:33:31;;;;;;;;;;;;;;;14.43;71.85;100991.81;1049832;28;707;-61
2021/11/25 02:34:22;;;;;;;;;;;;;;;14.42;72.26;100979.38;1045601;28;1009;-61
2021/11/25 02:35:12;;;;;;;;;;;;;;;14.41;71.80;100980.34;1046130;28;887;-62
2021/11/25 02:36:03;;;;;;;;;;;;;;;14.41;72.52;100986.56;1046360;28;1609;-61
2021/11/25 02:36:53;;;;;;;;;;;;;;;14.41;71.69;100988.41;1044225;28;747;-63
2021/11/25 02:37:43;;;;;;;;;;;;;;;14.43;71.69;100984.63;1045720;28;661;-61
2021/11/25 02:38:34;;;;;;;;;;;;;;;14.41;71.69;100975.00;1045042;28;763;-62
2021/11/25 02:39:24;;;;;;;;;;;;;;;14.42;71.77;100982.06;1045019;28;866;-62
2021/11/25 02:40:15;;;;;;;;;;;;;;;14.42;72.06;100979.38;1045185;28;803;-63
2021/11/25 02:41:05;;;;;;;;;;;;;;;14.42;71.77;100974.88;1045256;28;732;-63
2021/11/25 02:41:55;;;;;;;;;;;;;;;14.41;72.05;100973.16;1045098;28;724;-62
2021/11/25 02:42:46;;;;;;;;;;;;;;;14.41;72.21;100972.31;1047790;28;1913;-61
2021/11/25 02:43:36;;;;;;;;;;;;;;;14.41;71.85;100966.94;1049313;28;1661;-62
2021/11/25 02:44:27;;;;;;;;;;;;;;;14.40;72.33;100967.88;1049959;28;726;-62
2021/11/25 02:45:17;;;;;;;;;;;;;;;14.38;72.45;100962.66;1045622;28;711;-62
2021/11/25 02:46:08;;;;;;;;;;;;;;;14.39;72.62;100972.41;1046346;28;760;-63
2021/11/25 02:47:00;;;;;;;;;;;;;;;14.39;71.86;100971.53;1049695;28;1742;-61
2021/11/25 02:47:50;;;;;;;;;;;;;;;14.39;72.44;100969.72;1049746;28;859;-63
2021/11/25 02:48:41;;;;;;;;;;;;;;;14.39;72.56;100968.88;1049741;28;1827;-61
2021/11/25 02:49:31;;;;;;;;;;;;;;;14.39;72.47;100967.03;1043735;28;1523;-60
2021/11/25 02:50:21;;;;;;;;;;;;;;;14.40;72.20;100970.56;1045804;28;733;-60
2021/11/25 02:51:12;;;;;;;;;;;;;;;14.39;71.94;100968.88;1048539;28;1851;-60
2021/11/25 02:52:02;;;;;;;;;;;;;;;14.39;72.05;100969.72;1049793;28;877;-60
2021/11/25 02:52:53;;;;;;;;;;;;;;;14.38;72.17;100972.50;1049881;28;700;-60
2021/11/25 02:53:43;;;;;;;;;;;;;;;14.38;71.77;100968.00;1048874;28;1877;-61
2021/11/25 02:54:34;;;;;;;;;;;;;;;14.39;72.47;100976.91;1049538;28;1939;-61
2021/11/25 02:55:24;;;;;;;;;;;;;;;14.39;71.91;100968.88;1049886;28;805;-60
2021/11/25 02:56:15;;;;;;;;;;;;;;;14.38;72.48;100967.16;1049554;28;1292;-60
2021/11/25 02:57:05;;;;;;;;;;;;;;;14.37;71.81;100962.75;1049920;28;622;-60
2021/11/25 02:57:55;;;;;;;;;;;;;;;14.38;72.42;100961.78;1049758;28;742;-60
2021/11/25 02:58:46;;;;;;;;;;;;;;;14.39;71.79;100961.69;1049876;28;684;-60
2021/11/25 02:59:36;;;;;;;;;;;;;;;14.39;72.26;100961.69;1049943;28;820;-61
2021/11/25 03:00:27;;;;;;;;;;;;;;;14.39;71.72;100968.88;1050423;28;771;-60
2021/11/25 03:01:17;;;;;;;;;;;;;;;14.39;71.62;100958.13;1049866;28;824;-60
2021/11/25 03:02:08;;;;;;;;;;;;;;;14.37;71.73;100965.44;1049739;28;875;-60
2021/11/25 03:02:58;;;;;;;;;;;;;;;14.38;71.95;100961.78;1049782;28;650;-60
2021/11/25 03:03:48;;;;;;;;;;;;;;;14.39;72.64;100966.19;1049195;28;1760;-60
2021/11/25 03:04:39;;;;;;;;;;;;;;;14.38;72.39;100959.97;1049856;28;754;-60
2021/11/25 03:05:29;;;;;;;;;;;;;;;14.38;71.66;100961.78;1044257;28;1985;-61
2021/11/25 03:06:20;;;;;;;;;;;;;;;14.36;71.85;100961.91;1046131;28;852;-60
2021/11/25 03:07:10;;;;;;;;;;;;;;;14.37;71.65;100962.75;1045178;28;756;-60
2021/11/25 03:08:00;;;;;;;;;;;;;;;14.37;72.10;100957.41;1045021;28;637;-61
2021/11/25 03:08:51;;;;;;;;;;;;;;;14.37;72.32;100960.09;1045559;28;1932;-61
2021/11/25 03:09:41;;;;;;;;;;;;;;;14.37;71.79;100960.09;1046422;28;614;-60
2021/11/25 03:10:32;;;;;;;;;;;;;;;14.38;71.83;100961.78;1046197;28;844;-61
2021/11/25 03:11:22;;;;;;;;;;;;;;;14.38;72.18;100956.44;1046411;28;788;-62
2021/11/25 03:12:13;;;;;;;;;;;;;;;14.37;72.62;100954.72;1047040;28;697;-62
2021/11/25 03:13:03;;;;;;;;;;;;;;;14.36;72.55;100953.88;1042201;28;758;-62
2021/11/25 03:13:53;;;;;;;;;;;;;;;14.37;72.43;100952.03;1042896;28;622;-62
2021/11/25 03:14:44;;;;;;;;;;;;;;;14.37;72.18;100952.03;1042689;28;852;-62
2021/11/25 03:15:34;;;;;;;;;;;;;;;14.36;71.97;100948.50;1042768;28;692;-61
2021/11/25 03:16:25;;;;;;;;;;;;;;;14.34;72.30;100945.09;1042869;28;756;-61
2021/11/25 03:17:15;;;;;;;;;;;;;;;14.36;72.33;100948.50;1043722;28;1741;-61
2021/11/25 03:18:06;;;;;;;;;;;;;;;14.36;71.73;100950.34;1042310;28;967;-61
2021/11/25 03:18:56;;;;;;;;;;;;;;;14.36;72.35;100953.00;1042152;28;860;-61
2021/11/25 03:19:46;;;;;;;;;;;;;;;14.36;72.44;100955.69;1045522;28;709;-62
2021/11/25 03:20:37;;;;;;;;;;;;;;;14.36;72.46;100963.75;1046591;28;681;-61
2021/11/25 03:21:28;;;;;;;;;;;;;;;14.35;71.77;100951.31;1046559;28;2028;-61
2021/11/25 03:22:18;;;;;;;;;;;;;;;14.35;71.70;100952.16;1046304;28;758;-61
2021/11/25 03:23:09;;;;;;;;;;;;;;;14.35;72.01;100946.78;1046238;28;932;-62
2021/11/25 03:23:59;;;;;;;;;;;;;;;14.36;72.18;100953.00;1043134;28;1490;-61
2021/11/25 03:24:50;;;;;;;;;;;;;;;14.36;72.33;100947.66;1043101;28;673;-62
2021/11/25 03:25:40;;;;;;;;;;;;;;;14.35;71.78;100949.47;1046178;28;1947;-62
2021/11/25 03:26:30;;;;;;;;;;;;;;;14.34;71.62;100952.28;1045617;28;693;-62
2021/11/25 03:27:21;;;;;;;;;;;;;;;14.31;72.34;100948.03;1045617;28;832;-61
2021/11/25 03:28:11;;;;;;;;;;;;;;;14.32;72.66;100943.53;1042200;28;770;-61
2021/11/25 03:29:02;;;;;;;;;;;;;;;14.33;72.45;100945.25;1042016;28;605;-62
2021/11/25 03:29:52;;;;;;;;;;;;;;;14.33;72.40;100950.59;1042252;28;705;-61
2021/11/25 03:30:43;;;;;;;;;;;;;;;14.31;72.56;100953.41;1042212;28;712;-61
2021/11/25 03:31:33;;;;;;;;;;;;;;;14.31;72.57;100940.00;1042156;28;1067;-62
2021/11/25 03:32:23;;;;;;;;;;;;;;;14.31;71.90;100942.69;1042135;28;818;-61
2021/11/25 03:33:14;;;;;;;;;;;;;;;14.33;72.11;100953.28;1042067;28;697;-61
2021/11/25 03:34:04;;;;;;;;;;;;;;;14.33;72.17;100945.25;1045628;28;1592;-61
2021/11/25 03:34:55;;;;;;;;;;;;;;;14.32;72.40;100948.91;1045819;28;709;-61
2021/11/25 03:35:45;;;;;;;;;;;;;;;14.32;72.59;100946.22;1047457;28;944;-61
2021/11/25 03:36:36;;;;;;;;;;;;;;;14.32;72.34;100946.22;1045744;28;740;-61
2021/11/25 03:37:26;;;;;;;;;;;;;;;14.31;71.83;100949.88;1045629;28;666;-62
2021/11/25 03:38:17;;;;;;;;;;;;;;;14.32;71.79;100947.06;1045668;28;696;-64
2021/11/25 03:39:07;;;;;;;;;;;;;;;14.31;72.39;100944.50;1041546;28;1675;-63
2021/11/25 03:39:58;;;;;;;;;;;;;;;14.31;72.54;100941.81;1042183;28;851;-64
2021/11/25 03:40:48;;;;;;;;;;;;;;;14.31;71.93;100948.03;1045520;28;820;-64
2021/11/25 03:41:38;;;;;;;;;;;;;;;14.31;72.47;100941.81;1045367;28;704;-63
2021/11/25 03:42:29;;;;;;;;;;;;;;;14.30;71.90;100943.66;1041743;28;1802;-63
2021/11/25 03:43:19;;;;;;;;;;;;;;;14.31;72.49;100947.19;1046131;28;834;-63
2021/11/25 03:44:10;;;;;;;;;;;;;;;14.31;71.78;100945.34;1045534;28;872;-63
2021/11/25 03:45:00;;;;;;;;;;;;;;;14.30;72.59;100942.78;1045807;28;747;-64
2021/11/25 03:45:50;;;;;;;;;;;;;;;14.30;72.28;100948.16;1045556;28;1947;-63
2021/11/25 03:46:41;;;;;;;;;;;;;;;14.30;72.24;100948.16;1046062;28;1440;-64
2021/11/25 03:47:31;;;;;;;;;;;;;;;14.30;71.97;100950.84;1046210;28;1820;-64
2021/11/25 03:48:24;;;;;;;;;;;;;;;14.28;72.29;100940.22;1045639;28;1223;-63
2021/11/25 03:49:14;;;;;;;;;;;;;;;14.29;72.58;100947.31;1046090;28;1051;-62
2021/11/25 03:50:04;;;;;;;;;;;;;;;14.28;72.28;100942.91;1045642;28;882;-62
2021/11/25 03:50:55;;;;;;;;;;;;;;;14.28;72.50;100945.59;1045792;28;693;-63
2021/11/25 03:51:45;;;;;;;;;;;;;;;14.28;72.34;100944.75;1046917;28;654;-63
2021/11/25 03:52:36;;;;;;;;;;;;;;;14.27;71.77;100933.16;1045731;28;735;-63
2021/11/25 03:53:26;;;;;;;;;;;;;;;14.28;71.58;100944.75;1045755;28;788;-63
2021/11/25 03:54:17;;;;;;;;;;;;;;;14.27;72.39;100943.88;1045570;28;745;-63
2021/11/25 03:55:07;;;;;;;;;;;;;;;14.27;71.85;100937.66;1045846;28;682;-62
2021/11/25 03:55:57;;;;;;;;;;;;;;;14.27;72.31;100943.88;1042827;28;1769;-63
2021/11/25 03:56:48;;;;;;;;;;;;;;;14.25;71.98;100952.03;1041241;28;826;-63
2021/11/25 03:57:38;;;;;;;;;;;;;;;14.25;71.85;100957.41;1045682;28;783;-62
2021/11/25 03:58:29;;;;;;;;;;;;;;;14.26;72.60;100952.91;1046029;28;1720;-62
2021/11/25 03:59:19;;;;;;;;;;;;;;;14.25;71.91;100946.69;1042165;28;780;-62
2021/11/25 04:00:10;;;;;;;;;;;;;;;14.25;71.85;100946.69;1042004;28;747;-63
2021/11/25 04:01:01;;;;;;;;;;;;;;;14.23;72.69;100945.94;1041561;28;645;-62
2021/11/25 04:01:51;;;;;;;;;;;;;;;14.24;72.16;100938.75;1042094;28;638;-63
2021/11/25 04:02:41;;;;;;;;;;;;;;;14.23;72.47;100948.63;1041966;28;788;-62
2021/11/25 04:03:32;;;;;;;;;;;;;;;14.24;72.42;100944.13;1043011;28;1833;-61
2021/11/25 04:04:22;;;;;;;;;;;;;;;14.23;71.83;100943.25;1045429;28;1477;-61
2021/11/25 04:05:13;;;;;;;;;;;;;;;14.23;72.50;100939.72;1045675;28;790;-60
2021/11/25 04:06:03;;;;;;;;;;;;;;;14.23;72.00;100943.25;1046815;28;658;-61
2021/11/25 04:06:54;;;;;;;;;;;;;;;14.23;71.52;100937.91;1046538;28;762;-61
2021/11/25 04:07:44;;;;;;;;;;;;;;;14.23;71.48;100932.53;1046760;28;657;-61
2021/11/25 04:08:34;;;;;;;;;;;;;;;14.24;72.25;100939.63;1045523;28;1666;-61
2021/11/25 04:09:25;;;;;;;;;;;;;;;14.23;71.57;100929.88;1043053;28;728;-61
2021/11/25 04:10:15;;;;;;;;;;;;;;;14.24;71.83;100930.72;1041319;28;821;-61
2021/11/25 04:11:06;;;;;;;;;;;;;;;14.22;71.89;100933.53;1045222;28;960;-61
2021/11/25 04:11:57;;;;;;;;;;;;;;;14.21;72.43;100930.94;1046439;28;649;-60
2021/11/25 04:12:47;;;;;;;;;;;;;;;14.22;71.85;100927.31;1044176;28;1758;-61
2021/11/25 04:13:38;;;;;;;;;;;;;;;14.21;71.68;100931.81;1046666;28;1749;-61
2021/11/25 04:14:28;;;;;;;;;;;;;;;14.20;71.96;100927.41;1045750;28;750;-61
2021/11/25 04:15:18;;;;;;;;;;;;;;;14.21;72.41;100925.59;1045499;28;813;-61
2021/11/25 04:16:09;;;;;;;;;;;;;;;14.22;72.40;100929.97;1045680;28;732;-61
2021/11/25 04:16:59;;;;;;;;;;;;;;;14.22;72.14;100919.25;1046722;28;1899;-61
2021/11/25 04:17:50;;;;;;;;;;;;;;;14.22;72.19;100913.91;1046741;28;646;-61
2021/11/25 04:18:40;;;;;;;;;;;;;;;14.23;72.51;100912.94;1046622;28;692;-61
2021/11/25 04:19:31;;;;;;;;;;;;;;;14.21;71.75;100907.69;1046413;28;1020;-61
2021/11/25 04:20:21;;;;;;;;;;;;;;;14.21;72.15;100906.84;1046648;28;780;-61
2021/11/25 04:21:11;;;;;;;;;;;;;;;14.20;72.19;100908.66;1046674;28;743;-61
2021/11/25 04:22:02;;;;;;;;;;;;;;;14.20;71.88;100905.97;1041681;28;1934;-61
2021/11/25 04:22:52;;;;;;;;;;;;;;;14.20;72.27;100905.13;1042211;28;720;-61
2021/11/25 04:23:43;;;;;;;;;;;;;;;14.21;72.13;100891.59;1046563;28;835;-62
2021/11/25 04:24:33;;;;;;;;;;;;;;;14.18;72.18;100894.53;1045739;28;727;-62